sensor_id;sensor_type;location;lat;lon;timestamp;P1;durP1;ratioP1;P2;durP2;ratioP2
18748;SDS011;9503;53.560;10.246;2023-04-12T00:00:06;10.97;;;5.80;;
18748;SDS011;9503;53.560;10.246;2023-04-12T00:02:35;13.30;;;5.43;;
18748;SDS011;9503;53.560;10.246;2023-04-12T00:05:02;11.83;;;7.13;;
18748;SDS011;9503;53.560;10.246;2023-04-12T00:07:30;10.37;;;5.47;;
18748;SDS011;9503;53.560;10.246;2023-04-12T00:09:57;12.90;;;5.73;;
18748;SDS011;9503;53.560;10.246;2023-04-12T00:12:24;10.90;;;5.43;;
18748;SDS011;9503;53.560;10.246;2023-04-12T00:14:51;10.43;;;5.13;;
18748;SDS011;9503;53.560;10.246;2023-04-12T00:17:17;9.40;;;5.47;;
18748;SDS011;9503;53.560;10.246;2023-04-12T00:19:44;13.93;;;6.03;;
18748;SDS011;9503;53.560;10.246;2023-04-12T00:22:14;9.53;;;5.50;;
18748;SDS011;9503;53.560;10.246;2023-04-12T00:24:42;11.67;;;5.20;;
18748;SDS011;9503;53.560;10.246;2023-04-12T00:27:09;12.93;;;5.73;;
18748;SDS011;9503;53.560;10.246;2023-04-12T00:29:35;15.30;;;5.60;;
18748;SDS011;9503;53.560;10.246;2023-04-12T00:32:02;14.00;;;6.03;;
18748;SDS011;9503;53.560;10.246;2023-04-12T00:34:29;11.00;;;5.63;;
18748;SDS011;9503;53.560;10.246;2023-04-12T00:36:56;11.77;;;5.33;;
18748;SDS011;9503;53.560;10.246;2023-04-12T00:39:23;6.53;;;4.47;;
18748;SDS011;9503;53.560;10.246;2023-04-12T00:41:51;7.40;;;4.73;;
18748;SDS011;9503;53.560;10.246;2023-04-12T00:44:18;14.57;;;4.87;;
18748;SDS011;9503;53.560;10.246;2023-04-12T00:46:45;9.10;;;4.60;;
18748;SDS011;9503;53.560;10.246;2023-04-12T00:49:12;8.83;;;4.70;;
18748;SDS011;9503;53.560;10.246;2023-04-12T00:51:39;7.90;;;4.77;;
18748;SDS011;9503;53.560;10.246;2023-04-12T00:54:07;18.33;;;6.87;;
18748;SDS011;9503;53.560;10.246;2023-04-12T00:56:33;12.53;;;4.80;;
18748;SDS011;9503;53.560;10.246;2023-04-12T00:59:02;8.70;;;5.17;;
18748;SDS011;9503;53.560;10.246;2023-04-12T01:01:29;8.20;;;4.90;;
18748;SDS011;9503;53.560;10.246;2023-04-12T01:03:56;7.37;;;4.50;;
18748;SDS011;9503;53.560;10.246;2023-04-12T01:06:27;9.50;;;4.33;;
18748;SDS011;9503;53.560;10.246;2023-04-12T01:09:07;13.47;;;4.47;;
18748;SDS011;9503;53.560;10.246;2023-04-12T01:11:42;11.30;;;4.40;;
18748;SDS011;9503;53.560;10.246;2023-04-12T01:14:14;9.37;;;4.67;;
18748;SDS011;9503;53.560;10.246;2023-04-12T01:16:45;12.43;;;4.57;;
18748;SDS011;9503;53.560;10.246;2023-04-12T01:19:21;7.87;;;4.10;;
18748;SDS011;9503;53.560;10.246;2023-04-12T01:22:01;10.47;;;3.93;;
18748;SDS011;9503;53.560;10.246;2023-04-12T01:24:40;8.77;;;4.70;;
18748;SDS011;9503;53.560;10.246;2023-04-12T01:27:19;10.50;;;4.00;;
18748;SDS011;9503;53.560;10.246;2023-04-12T01:29:54;8.77;;;4.40;;
18748;SDS011;9503;53.560;10.246;2023-04-12T01:32:23;10.50;;;3.53;;
18748;SDS011;9503;53.560;10.246;2023-04-12T01:34:50;7.57;;;3.63;;
18748;SDS011;9503;53.560;10.246;2023-04-12T01:37:17;12.30;;;3.60;;
18748;SDS011;9503;53.560;10.246;2023-04-12T01:39:46;11.63;;;3.93;;
18748;SDS011;9503;53.560;10.246;2023-04-12T01:42:17;13.23;;;4.47;;
18748;SDS011;9503;53.560;10.246;2023-04-12T01:44:45;9.93;;;3.90;;
18748;SDS011;9503;53.560;10.246;2023-04-12T01:47:12;7.63;;;3.73;;
18748;SDS011;9503;53.560;10.246;2023-04-12T01:49:40;8.77;;;4.30;;
18748;SDS011;9503;53.560;10.246;2023-04-12T01:52:16;8.83;;;4.00;;
18748;SDS011;9503;53.560;10.246;2023-04-12T01:54:45;9.20;;;3.93;;
18748;SDS011;9503;53.560;10.246;2023-04-12T01:57:16;9.20;;;4.23;;
18748;SDS011;9503;53.560;10.246;2023-04-12T01:59:46;11.80;;;4.27;;
18748;SDS011;9503;53.560;10.246;2023-04-12T02:02:15;8.13;;;3.93;;
18748;SDS011;9503;53.560;10.246;2023-04-12T02:04:42;12.23;;;4.10;;
18748;SDS011;9503;53.560;10.246;2023-04-12T02:07:10;11.37;;;4.00;;
18748;SDS011;9503;53.560;10.246;2023-04-12T02:09:38;12.47;;;4.43;;
18748;SDS011;9503;53.560;10.246;2023-04-12T02:12:06;9.60;;;4.10;;
18748;SDS011;9503;53.560;10.246;2023-04-12T02:14:34;9.20;;;4.10;;
18748;SDS011;9503;53.560;10.246;2023-04-12T02:17:02;5.47;;;3.73;;
18748;SDS011;9503;53.560;10.246;2023-04-12T02:19:29;6.77;;;3.80;;
18748;SDS011;9503;53.560;10.246;2023-04-12T02:21:56;6.87;;;3.87;;
18748;SDS011;9503;53.560;10.246;2023-04-12T02:24:23;11.40;;;3.93;;
18748;SDS011;9503;53.560;10.246;2023-04-12T02:26:49;10.27;;;3.80;;
18748;SDS011;9503;53.560;10.246;2023-04-12T02:29:16;6.57;;;4.20;;
18748;SDS011;9503;53.560;10.246;2023-04-12T02:31:43;15.27;;;4.57;;
18748;SDS011;9503;53.560;10.246;2023-04-12T02:34:11;10.20;;;4.50;;
18748;SDS011;9503;53.560;10.246;2023-04-12T02:36:40;9.03;;;3.90;;
18748;SDS011;9503;53.560;10.246;2023-04-12T02:39:06;8.53;;;3.60;;
18748;SDS011;9503;53.560;10.246;2023-04-12T02:41:33;7.20;;;4.20;;
18748;SDS011;9503;53.560;10.246;2023-04-12T02:43:59;11.00;;;4.20;;
18748;SDS011;9503;53.560;10.246;2023-04-12T02:46:26;7.73;;;4.10;;
18748;SDS011;9503;53.560;10.246;2023-04-12T02:48:52;10.53;;;4.50;;
18748;SDS011;9503;53.560;10.246;2023-04-12T02:51:20;8.43;;;4.80;;
18748;SDS011;9503;53.560;10.246;2023-04-12T02:53:47;9.33;;;3.73;;
18748;SDS011;9503;53.560;10.246;2023-04-12T02:56:13;7.67;;;4.20;;
18748;SDS011;9503;53.560;10.246;2023-04-12T02:58:43;10.20;;;4.23;;
18748;SDS011;9503;53.560;10.246;2023-04-12T03:01:09;11.10;;;4.47;;
18748;SDS011;9503;53.560;10.246;2023-04-12T03:03:37;12.13;;;4.20;;
18748;SDS011;9503;53.560;10.246;2023-04-12T03:06:04;10.10;;;4.73;;
18748;SDS011;9503;53.560;10.246;2023-04-12T03:08:35;5.83;;;3.63;;
18748;SDS011;9503;53.560;10.246;2023-04-12T03:11:02;9.40;;;4.17;;
18748;SDS011;9503;53.560;10.246;2023-04-12T03:13:28;9.70;;;4.87;;
18748;SDS011;9503;53.560;10.246;2023-04-12T03:15:56;8.40;;;3.83;;
18748;SDS011;9503;53.560;10.246;2023-04-12T03:18:24;9.53;;;3.93;;
18748;SDS011;9503;53.560;10.246;2023-04-12T03:20:50;8.10;;;3.63;;
18748;SDS011;9503;53.560;10.246;2023-04-12T03:23:17;8.90;;;3.63;;
18748;SDS011;9503;53.560;10.246;2023-04-12T03:25:45;8.93;;;3.50;;
18748;SDS011;9503;53.560;10.246;2023-04-12T03:28:12;6.40;;;3.80;;
18748;SDS011;9503;53.560;10.246;2023-04-12T03:30:38;18.07;;;5.10;;
18748;SDS011;9503;53.560;10.246;2023-04-12T03:33:05;8.60;;;3.80;;
18748;SDS011;9503;53.560;10.246;2023-04-12T03:35:31;11.43;;;4.23;;
18748;SDS011;9503;53.560;10.246;2023-04-12T03:37:58;8.87;;;4.40;;
18748;SDS011;9503;53.560;10.246;2023-04-12T03:40:25;15.70;;;3.97;;
18748;SDS011;9503;53.560;10.246;2023-04-12T03:42:53;9.57;;;5.53;;
18748;SDS011;9503;53.560;10.246;2023-04-12T03:45:19;7.40;;;3.80;;
18748;SDS011;9503;53.560;10.246;2023-04-12T03:47:46;10.27;;;3.83;;
18748;SDS011;9503;53.560;10.246;2023-04-12T03:50:12;8.30;;;3.30;;
18748;SDS011;9503;53.560;10.246;2023-04-12T03:52:39;8.30;;;3.93;;
18748;SDS011;9503;53.560;10.246;2023-04-12T03:55:06;9.90;;;4.10;;
18748;SDS011;9503;53.560;10.246;2023-04-12T03:57:33;7.47;;;3.90;;
18748;SDS011;9503;53.560;10.246;2023-04-12T04:00:01;11.33;;;4.23;;
18748;SDS011;9503;53.560;10.246;2023-04-12T04:02:28;6.70;;;3.40;;
18748;SDS011;9503;53.560;10.246;2023-04-12T04:04:55;7.47;;;3.50;;
18748;SDS011;9503;53.560;10.246;2023-04-12T04:07:22;6.30;;;4.23;;
18748;SDS011;9503;53.560;10.246;2023-04-12T04:09:48;10.23;;;4.60;;
18748;SDS011;9503;53.560;10.246;2023-04-12T04:12:15;8.03;;;3.70;;
18748;SDS011;9503;53.560;10.246;2023-04-12T04:14:42;9.73;;;3.80;;
18748;SDS011;9503;53.560;10.246;2023-04-12T04:17:10;6.77;;;3.63;;
18748;SDS011;9503;53.560;10.246;2023-04-12T04:19:36;11.73;;;3.50;;
18748;SDS011;9503;53.560;10.246;2023-04-12T04:22:03;8.30;;;3.90;;
18748;SDS011;9503;53.560;10.246;2023-04-12T04:24:30;9.50;;;3.87;;
18748;SDS011;9503;53.560;10.246;2023-04-12T04:26:58;4.97;;;3.10;;
18748;SDS011;9503;53.560;10.246;2023-04-12T04:29:24;7.63;;;3.53;;
18748;SDS011;9503;53.560;10.246;2023-04-12T04:31:53;7.53;;;3.47;;
18748;SDS011;9503;53.560;10.246;2023-04-12T04:34:22;10.53;;;3.67;;
18748;SDS011;9503;53.560;10.246;2023-04-12T04:36:49;6.20;;;3.83;;
18748;SDS011;9503;53.560;10.246;2023-04-12T04:39:16;8.73;;;3.60;;
18748;SDS011;9503;53.560;10.246;2023-04-12T04:41:43;10.07;;;3.67;;
18748;SDS011;9503;53.560;10.246;2023-04-12T04:44:10;9.27;;;4.00;;
18748;SDS011;9503;53.560;10.246;2023-04-12T04:46:37;8.23;;;3.33;;
18748;SDS011;9503;53.560;10.246;2023-04-12T04:49:04;9.23;;;4.10;;
18748;SDS011;9503;53.560;10.246;2023-04-12T04:51:32;13.40;;;3.97;;
18748;SDS011;9503;53.560;10.246;2023-04-12T04:53:59;6.00;;;3.37;;
18748;SDS011;9503;53.560;10.246;2023-04-12T04:56:26;11.67;;;3.50;;
18748;SDS011;9503;53.560;10.246;2023-04-12T04:58:53;10.90;;;3.63;;
18748;SDS011;9503;53.560;10.246;2023-04-12T05:01:19;7.03;;;4.40;;
18748;SDS011;9503;53.560;10.246;2023-04-12T05:03:49;5.77;;;3.50;;
18748;SDS011;9503;53.560;10.246;2023-04-12T05:06:16;11.77;;;4.53;;
18748;SDS011;9503;53.560;10.246;2023-04-12T05:08:44;6.77;;;3.40;;
18748;SDS011;9503;53.560;10.246;2023-04-12T05:11:10;11.10;;;3.23;;
18748;SDS011;9503;53.560;10.246;2023-04-12T05:13:37;8.90;;;3.80;;
18748;SDS011;9503;53.560;10.246;2023-04-12T05:16:04;9.37;;;3.90;;
18748;SDS011;9503;53.560;10.246;2023-04-12T05:18:32;7.43;;;3.40;;
18748;SDS011;9503;53.560;10.246;2023-04-12T05:21:00;5.77;;;3.73;;
18748;SDS011;9503;53.560;10.246;2023-04-12T05:23:27;5.43;;;3.27;;
18748;SDS011;9503;53.560;10.246;2023-04-12T05:25:55;10.07;;;3.50;;
18748;SDS011;9503;53.560;10.246;2023-04-12T05:28:22;8.37;;;3.27;;
18748;SDS011;9503;53.560;10.246;2023-04-12T05:30:48;9.17;;;3.70;;
18748;SDS011;9503;53.560;10.246;2023-04-12T05:33:15;6.77;;;3.53;;
18748;SDS011;9503;53.560;10.246;2023-04-12T05:35:42;5.10;;;3.33;;
18748;SDS011;9503;53.560;10.246;2023-04-12T05:38:08;6.83;;;3.07;;
18748;SDS011;9503;53.560;10.246;2023-04-12T05:40:35;5.50;;;2.80;;
18748;SDS011;9503;53.560;10.246;2023-04-12T05:43:04;7.27;;;2.83;;
18748;SDS011;9503;53.560;10.246;2023-04-12T05:45:30;5.87;;;2.53;;
18748;SDS011;9503;53.560;10.246;2023-04-12T05:47:57;6.77;;;2.60;;
18748;SDS011;9503;53.560;10.246;2023-04-12T05:50:23;5.43;;;2.20;;
18748;SDS011;9503;53.560;10.246;2023-04-12T05:52:50;5.77;;;2.47;;
18748;SDS011;9503;53.560;10.246;2023-04-12T05:55:17;4.10;;;2.20;;
18748;SDS011;9503;53.560;10.246;2023-04-12T05:57:45;3.97;;;2.40;;
18748;SDS011;9503;53.560;10.246;2023-04-12T06:00:14;3.23;;;2.20;;
18748;SDS011;9503;53.560;10.246;2023-04-12T06:02:43;3.43;;;2.40;;
18748;SDS011;9503;53.560;10.246;2023-04-12T06:05:10;4.40;;;2.33;;
18748;SDS011;9503;53.560;10.246;2023-04-12T06:07:37;2.60;;;2.07;;
18748;SDS011;9503;53.560;10.246;2023-04-12T06:10:05;5.27;;;2.30;;
18748;SDS011;9503;53.560;10.246;2023-04-12T06:12:32;3.77;;;2.17;;
18748;SDS011;9503;53.560;10.246;2023-04-12T06:14:59;3.07;;;2.30;;
18748;SDS011;9503;53.560;10.246;2023-04-12T06:17:27;5.77;;;2.40;;
18748;SDS011;9503;53.560;10.246;2023-04-12T06:19:53;4.47;;;2.60;;
18748;SDS011;9503;53.560;10.246;2023-04-12T06:22:20;4.17;;;2.20;;
18748;SDS011;9503;53.560;10.246;2023-04-12T06:24:46;5.47;;;2.30;;
18748;SDS011;9503;53.560;10.246;2023-04-12T06:27:13;2.87;;;2.00;;
18748;SDS011;9503;53.560;10.246;2023-04-12T06:29:39;5.53;;;2.53;;
18748;SDS011;9503;53.560;10.246;2023-04-12T06:32:06;7.03;;;2.00;;
18748;SDS011;9503;53.560;10.246;2023-04-12T06:34:34;3.43;;;2.17;;
18748;SDS011;9503;53.560;10.246;2023-04-12T06:37:00;6.03;;;2.20;;
18748;SDS011;9503;53.560;10.246;2023-04-12T06:39:27;5.47;;;2.10;;
18748;SDS011;9503;53.560;10.246;2023-04-12T06:41:54;4.77;;;2.00;;
18748;SDS011;9503;53.560;10.246;2023-04-12T06:44:21;2.13;;;1.90;;
18748;SDS011;9503;53.560;10.246;2023-04-12T06:46:48;6.10;;;2.40;;
18748;SDS011;9503;53.560;10.246;2023-04-12T06:49:15;6.77;;;2.27;;
18748;SDS011;9503;53.560;10.246;2023-04-12T06:51:43;4.70;;;2.07;;
18748;SDS011;9503;53.560;10.246;2023-04-12T06:54:10;5.03;;;2.10;;
18748;SDS011;9503;53.560;10.246;2023-04-12T06:56:37;4.30;;;2.20;;
18748;SDS011;9503;53.560;10.246;2023-04-12T06:59:03;3.87;;;2.20;;
18748;SDS011;9503;53.560;10.246;2023-04-12T07:01:30;6.60;;;2.50;;
18748;SDS011;9503;53.560;10.246;2023-04-12T07:03:57;6.03;;;2.50;;
18748;SDS011;9503;53.560;10.246;2023-04-12T07:06:23;5.10;;;2.20;;
18748;SDS011;9503;53.560;10.246;2023-04-12T07:08:51;5.70;;;2.10;;
18748;SDS011;9503;53.560;10.246;2023-04-12T07:11:18;4.20;;;2.23;;
18748;SDS011;9503;53.560;10.246;2023-04-12T07:13:46;9.37;;;2.40;;
18748;SDS011;9503;53.560;10.246;2023-04-12T07:16:12;4.37;;;2.17;;
18748;SDS011;9503;53.560;10.246;2023-04-12T07:18:39;4.13;;;1.70;;
18748;SDS011;9503;53.560;10.246;2023-04-12T07:21:06;5.80;;;2.47;;
18748;SDS011;9503;53.560;10.246;2023-04-12T07:23:32;5.57;;;2.00;;
18748;SDS011;9503;53.560;10.246;2023-04-12T07:26:00;4.10;;;1.93;;
18748;SDS011;9503;53.560;10.246;2023-04-12T07:28:27;8.47;;;2.20;;
18748;SDS011;9503;53.560;10.246;2023-04-12T07:30:54;5.47;;;1.90;;
18748;SDS011;9503;53.560;10.246;2023-04-12T07:33:20;3.63;;;2.00;;
18748;SDS011;9503;53.560;10.246;2023-04-12T07:35:47;5.10;;;2.57;;
18748;SDS011;9503;53.560;10.246;2023-04-12T07:38:13;3.83;;;1.77;;
18748;SDS011;9503;53.560;10.246;2023-04-12T07:40:40;3.73;;;1.70;;
18748;SDS011;9503;53.560;10.246;2023-04-12T07:43:08;6.00;;;2.20;;
18748;SDS011;9503;53.560;10.246;2023-04-12T07:45:35;3.63;;;1.77;;
18748;SDS011;9503;53.560;10.246;2023-04-12T07:48:02;5.10;;;2.20;;
18748;SDS011;9503;53.560;10.246;2023-04-12T07:50:29;4.07;;;2.10;;
18748;SDS011;9503;53.560;10.246;2023-04-12T07:52:56;5.27;;;2.10;;
18748;SDS011;9503;53.560;10.246;2023-04-12T07:55:23;2.37;;;1.87;;
18748;SDS011;9503;53.560;10.246;2023-04-12T07:57:50;2.53;;;1.80;;
18748;SDS011;9503;53.560;10.246;2023-04-12T08:00:18;2.87;;;1.73;;
18748;SDS011;9503;53.560;10.246;2023-04-12T08:02:45;5.07;;;2.07;;
18748;SDS011;9503;53.560;10.246;2023-04-12T08:05:12;4.33;;;2.40;;
18748;SDS011;9503;53.560;10.246;2023-04-12T08:07:39;4.10;;;1.97;;
18748;SDS011;9503;53.560;10.246;2023-04-12T08:10:06;4.80;;;2.10;;
18748;SDS011;9503;53.560;10.246;2023-04-12T08:12:33;3.43;;;2.10;;
18748;SDS011;9503;53.560;10.246;2023-04-12T08:15:00;4.30;;;2.13;;
18748;SDS011;9503;53.560;10.246;2023-04-12T08:17:27;7.83;;;2.10;;
18748;SDS011;9503;53.560;10.246;2023-04-12T08:19:54;2.87;;;1.97;;
18748;SDS011;9503;53.560;10.246;2023-04-12T08:22:21;6.07;;;2.83;;
18748;SDS011;9503;53.560;10.246;2023-04-12T08:24:47;4.30;;;2.33;;
18748;SDS011;9503;53.560;10.246;2023-04-12T08:27:14;4.73;;;2.27;;
18748;SDS011;9503;53.560;10.246;2023-04-12T08:29:40;5.77;;;2.00;;
18748;SDS011;9503;53.560;10.246;2023-04-12T08:32:07;3.47;;;1.97;;
18748;SDS011;9503;53.560;10.246;2023-04-12T08:34:37;3.03;;;2.13;;
18748;SDS011;9503;53.560;10.246;2023-04-12T08:37:04;5.80;;;2.40;;
18748;SDS011;9503;53.560;10.246;2023-04-12T08:39:31;4.10;;;2.30;;
18748;SDS011;9503;53.560;10.246;2023-04-12T08:41:57;8.70;;;2.87;;
18748;SDS011;9503;53.560;10.246;2023-04-12T08:44:31;4.47;;;2.30;;
18748;SDS011;9503;53.560;10.246;2023-04-12T08:47:01;5.20;;;2.00;;
18748;SDS011;9503;53.560;10.246;2023-04-12T08:49:28;5.77;;;2.10;;
18748;SDS011;9503;53.560;10.246;2023-04-12T08:51:57;5.80;;;2.30;;
18748;SDS011;9503;53.560;10.246;2023-04-12T08:54:25;7.43;;;2.20;;
18748;SDS011;9503;53.560;10.246;2023-04-12T08:56:53;3.93;;;2.10;;
18748;SDS011;9503;53.560;10.246;2023-04-12T08:59:21;3.27;;;2.03;;
18748;SDS011;9503;53.560;10.246;2023-04-12T09:01:49;3.57;;;1.90;;
18748;SDS011;9503;53.560;10.246;2023-04-12T09:04:17;4.73;;;2.10;;
18748;SDS011;9503;53.560;10.246;2023-04-12T09:06:43;3.57;;;1.90;;
18748;SDS011;9503;53.560;10.246;2023-04-12T09:09:11;2.90;;;2.00;;
18748;SDS011;9503;53.560;10.246;2023-04-12T09:11:38;4.27;;;1.93;;
18748;SDS011;9503;53.560;10.246;2023-04-12T09:14:17;5.00;;;2.37;;
18748;SDS011;9503;53.560;10.246;2023-04-12T09:16:46;3.47;;;1.77;;
18748;SDS011;9503;53.560;10.246;2023-04-12T09:19:13;3.53;;;1.70;;
18748;SDS011;9503;53.560;10.246;2023-04-12T09:21:50;4.37;;;2.00;;
18748;SDS011;9503;53.560;10.246;2023-04-12T09:24:19;2.53;;;1.73;;
18748;SDS011;9503;53.560;10.246;2023-04-12T09:26:48;4.60;;;2.07;;
18748;SDS011;9503;53.560;10.246;2023-04-12T09:29:21;5.43;;;2.03;;
18748;SDS011;9503;53.560;10.246;2023-04-12T09:31:59;6.97;;;2.10;;
18748;SDS011;9503;53.560;10.246;2023-04-12T09:34:27;5.13;;;2.43;;
18748;SDS011;9503;53.560;10.246;2023-04-12T09:36:54;3.10;;;1.90;;
18748;SDS011;9503;53.560;10.246;2023-04-12T09:39:30;3.83;;;2.00;;
18748;SDS011;9503;53.560;10.246;2023-04-12T09:42:04;3.10;;;1.97;;
18748;SDS011;9503;53.560;10.246;2023-04-12T09:44:31;7.33;;;2.40;;
18748;SDS011;9503;53.560;10.246;2023-04-12T09:46:58;5.00;;;2.07;;
18748;SDS011;9503;53.560;10.246;2023-04-12T09:49:35;4.80;;;2.20;;
18748;SDS011;9503;53.560;10.246;2023-04-12T09:52:03;3.97;;;2.10;;
18748;SDS011;9503;53.560;10.246;2023-04-12T09:54:32;5.87;;;2.27;;
18748;SDS011;9503;53.560;10.246;2023-04-12T09:57:03;5.03;;;2.00;;
18748;SDS011;9503;53.560;10.246;2023-04-12T09:59:33;5.13;;;1.93;;
18748;SDS011;9503;53.560;10.246;2023-04-12T10:02:02;8.97;;;2.33;;
18748;SDS011;9503;53.560;10.246;2023-04-12T10:04:32;2.80;;;1.90;;
18748;SDS011;9503;53.560;10.246;2023-04-12T10:07:00;7.63;;;1.90;;
18748;SDS011;9503;53.560;10.246;2023-04-12T10:09:27;4.63;;;1.90;;
18748;SDS011;9503;53.560;10.246;2023-04-12T10:11:55;3.40;;;1.90;;
18748;SDS011;9503;53.560;10.246;2023-04-12T10:14:23;4.67;;;1.90;;
18748;SDS011;9503;53.560;10.246;2023-04-12T10:16:53;4.57;;;2.10;;
18748;SDS011;9503;53.560;10.246;2023-04-12T10:19:22;6.37;;;1.90;;
18748;SDS011;9503;53.560;10.246;2023-04-12T10:21:50;5.90;;;1.80;;
18748;SDS011;9503;53.560;10.246;2023-04-12T10:24:17;2.40;;;1.60;;
18748;SDS011;9503;53.560;10.246;2023-04-12T10:26:46;6.53;;;1.97;;
18748;SDS011;9503;53.560;10.246;2023-04-12T10:29:28;3.60;;;2.00;;
18748;SDS011;9503;53.560;10.246;2023-04-12T10:31:57;3.77;;;2.03;;
18748;SDS011;9503;53.560;10.246;2023-04-12T10:34:43;4.80;;;1.60;;
18748;SDS011;9503;53.560;10.246;2023-04-12T10:37:09;3.03;;;1.40;;
18748;SDS011;9503;53.560;10.246;2023-04-12T10:39:39;2.90;;;2.00;;
18748;SDS011;9503;53.560;10.246;2023-04-12T10:42:25;7.00;;;1.70;;
18748;SDS011;9503;53.560;10.246;2023-04-12T10:44:54;4.67;;;2.03;;
18748;SDS011;9503;53.560;10.246;2023-04-12T10:50:23;4.07;;;1.50;;
18748;SDS011;9503;53.560;10.246;2023-04-12T10:55:50;7.30;;;2.20;;
18748;SDS011;9503;53.560;10.246;2023-04-12T11:01:23;6.20;;;2.00;;
18748;SDS011;9503;53.560;10.246;2023-04-12T11:04:05;6.03;;;1.70;;
18748;SDS011;9503;53.560;10.246;2023-04-12T11:06:42;3.87;;;1.80;;
18748;SDS011;9503;53.560;10.246;2023-04-12T11:09:20;4.80;;;1.97;;
18748;SDS011;9503;53.560;10.246;2023-04-12T11:11:47;9.77;;;2.30;;
18748;SDS011;9503;53.560;10.246;2023-04-12T11:14:14;5.80;;;2.07;;
18748;SDS011;9503;53.560;10.246;2023-04-12T11:19:48;5.30;;;2.50;;
18748;SDS011;9503;53.560;10.246;2023-04-12T11:22:16;6.10;;;2.20;;
18748;SDS011;9503;53.560;10.246;2023-04-12T11:24:45;4.13;;;2.60;;
18748;SDS011;9503;53.560;10.246;2023-04-12T11:27:13;7.87;;;2.83;;
18748;SDS011;9503;53.560;10.246;2023-04-12T11:29:40;7.30;;;3.10;;
18748;SDS011;9503;53.560;10.246;2023-04-12T11:32:09;9.27;;;3.43;;
18748;SDS011;9503;53.560;10.246;2023-04-12T11:34:39;7.17;;;3.40;;
18748;SDS011;9503;53.560;10.246;2023-04-12T11:37:06;7.77;;;3.27;;
18748;SDS011;9503;53.560;10.246;2023-04-12T11:39:34;5.37;;;3.07;;
18748;SDS011;9503;53.560;10.246;2023-04-12T11:42:03;9.87;;;3.77;;
18748;SDS011;9503;53.560;10.246;2023-04-12T11:44:32;16.63;;;4.33;;
18748;SDS011;9503;53.560;10.246;2023-04-12T11:47:00;11.00;;;4.00;;
18748;SDS011;9503;53.560;10.246;2023-04-12T11:49:27;8.50;;;3.43;;
18748;SDS011;9503;53.560;10.246;2023-04-12T11:52:01;8.83;;;4.90;;
18748;SDS011;9503;53.560;10.246;2023-04-12T11:54:29;14.00;;;5.13;;
18748;SDS011;9503;53.560;10.246;2023-04-12T11:56:59;8.47;;;4.40;;
18748;SDS011;9503;53.560;10.246;2023-04-12T11:59:30;10.97;;;4.33;;
18748;SDS011;9503;53.560;10.246;2023-04-12T12:01:58;11.97;;;4.07;;
18748;SDS011;9503;53.560;10.246;2023-04-12T12:04:26;9.67;;;4.53;;
18748;SDS011;9503;53.560;10.246;2023-04-12T12:06:53;5.90;;;4.00;;
18748;SDS011;9503;53.560;10.246;2023-04-12T12:09:22;9.80;;;4.60;;
18748;SDS011;9503;53.560;10.246;2023-04-12T12:11:49;13.30;;;4.70;;
18748;SDS011;9503;53.560;10.246;2023-04-12T12:14:19;8.33;;;4.40;;
18748;SDS011;9503;53.560;10.246;2023-04-12T12:16:52;11.27;;;4.47;;
18748;SDS011;9503;53.560;10.246;2023-04-12T12:19:27;6.53;;;4.20;;
18748;SDS011;9503;53.560;10.246;2023-04-12T12:22:04;9.47;;;4.50;;
18748;SDS011;9503;53.560;10.246;2023-04-12T12:24:33;7.70;;;4.43;;
18748;SDS011;9503;53.560;10.246;2023-04-12T12:27:00;10.60;;;4.70;;
18748;SDS011;9503;53.560;10.246;2023-04-12T12:29:33;11.40;;;4.70;;
18748;SDS011;9503;53.560;10.246;2023-04-12T12:32:00;9.33;;;4.20;;
18748;SDS011;9503;53.560;10.246;2023-04-12T12:34:30;7.83;;;4.30;;
18748;SDS011;9503;53.560;10.246;2023-04-12T12:36:57;6.80;;;4.20;;
18748;SDS011;9503;53.560;10.246;2023-04-12T12:39:24;9.00;;;4.53;;
18748;SDS011;9503;53.560;10.246;2023-04-12T12:41:55;10.77;;;4.13;;
18748;SDS011;9503;53.560;10.246;2023-04-12T12:44:22;10.73;;;5.57;;
18748;SDS011;9503;53.560;10.246;2023-04-12T12:46:49;6.43;;;3.50;;
18748;SDS011;9503;53.560;10.246;2023-04-12T12:49:16;11.60;;;4.27;;
18748;SDS011;9503;53.560;10.246;2023-04-12T12:51:42;6.57;;;4.07;;
18748;SDS011;9503;53.560;10.246;2023-04-12T12:54:09;8.50;;;3.60;;
18748;SDS011;9503;53.560;10.246;2023-04-12T12:56:36;5.43;;;3.50;;
18748;SDS011;9503;53.560;10.246;2023-04-12T12:59:04;6.87;;;3.40;;
18748;SDS011;9503;53.560;10.246;2023-04-12T13:01:30;5.77;;;3.17;;
18748;SDS011;9503;53.560;10.246;2023-04-12T13:03:57;4.50;;;3.30;;
18748;SDS011;9503;53.560;10.246;2023-04-12T13:06:24;4.73;;;3.10;;
18748;SDS011;9503;53.560;10.246;2023-04-12T13:08:52;3.83;;;2.73;;
18748;SDS011;9503;53.560;10.246;2023-04-12T13:11:19;2.87;;;2.30;;
18748;SDS011;9503;53.560;10.246;2023-04-12T13:13:46;3.67;;;2.50;;
18748;SDS011;9503;53.560;10.246;2023-04-12T13:16:14;8.00;;;3.03;;
18748;SDS011;9503;53.560;10.246;2023-04-12T13:18:41;3.50;;;2.47;;
18748;SDS011;9503;53.560;10.246;2023-04-12T13:21:08;3.53;;;2.73;;
18748;SDS011;9503;53.560;10.246;2023-04-12T13:23:34;4.80;;;2.47;;
18748;SDS011;9503;53.560;10.246;2023-04-12T13:26:01;3.80;;;2.40;;
18748;SDS011;9503;53.560;10.246;2023-04-12T13:28:28;4.30;;;2.67;;
18748;SDS011;9503;53.560;10.246;2023-04-12T13:30:54;5.37;;;2.70;;
18748;SDS011;9503;53.560;10.246;2023-04-12T13:33:22;3.50;;;2.47;;
18748;SDS011;9503;53.560;10.246;2023-04-12T13:35:49;5.73;;;2.80;;
18748;SDS011;9503;53.560;10.246;2023-04-12T13:38:15;5.37;;;2.73;;
18748;SDS011;9503;53.560;10.246;2023-04-12T13:40:42;6.97;;;2.37;;
18748;SDS011;9503;53.560;10.246;2023-04-12T13:43:09;5.77;;;2.60;;
18748;SDS011;9503;53.560;10.246;2023-04-12T13:45:35;7.47;;;3.87;;
18748;SDS011;9503;53.560;10.246;2023-04-12T13:48:02;3.53;;;2.60;;
18748;SDS011;9503;53.560;10.246;2023-04-12T13:50:30;4.17;;;2.30;;
18748;SDS011;9503;53.560;10.246;2023-04-12T13:52:56;3.07;;;2.53;;
18748;SDS011;9503;53.560;10.246;2023-04-12T13:55:23;4.33;;;2.90;;
18748;SDS011;9503;53.560;10.246;2023-04-12T13:57:50;3.97;;;2.60;;
18748;SDS011;9503;53.560;10.246;2023-04-12T14:00:17;6.33;;;2.60;;
18748;SDS011;9503;53.560;10.246;2023-04-12T14:02:44;7.07;;;3.23;;
18748;SDS011;9503;53.560;10.246;2023-04-12T14:05:11;4.13;;;2.40;;
18748;SDS011;9503;53.560;10.246;2023-04-12T14:07:39;7.63;;;2.77;;
18748;SDS011;9503;53.560;10.246;2023-04-12T14:10:06;3.27;;;2.50;;
18748;SDS011;9503;53.560;10.246;2023-04-12T14:12:33;4.07;;;2.70;;
18748;SDS011;9503;53.560;10.246;2023-04-12T14:15:00;5.97;;;2.87;;
18748;SDS011;9503;53.560;10.246;2023-04-12T14:17:27;5.57;;;2.40;;
18748;SDS011;9503;53.560;10.246;2023-04-12T14:19:56;5.27;;;2.97;;
18748;SDS011;9503;53.560;10.246;2023-04-12T14:22:23;5.40;;;2.50;;
18748;SDS011;9503;53.560;10.246;2023-04-12T14:24:51;3.87;;;3.10;;
18748;SDS011;9503;53.560;10.246;2023-04-12T14:27:17;3.27;;;2.70;;
18748;SDS011;9503;53.560;10.246;2023-04-12T14:29:44;5.47;;;2.80;;
18748;SDS011;9503;53.560;10.246;2023-04-12T14:32:10;4.60;;;2.50;;
18748;SDS011;9503;53.560;10.246;2023-04-12T14:34:37;8.00;;;2.80;;
18748;SDS011;9503;53.560;10.246;2023-04-12T14:37:03;3.87;;;2.60;;
18748;SDS011;9503;53.560;10.246;2023-04-12T14:39:30;3.73;;;2.40;;
18748;SDS011;9503;53.560;10.246;2023-04-12T14:41:58;5.43;;;2.67;;
18748;SDS011;9503;53.560;10.246;2023-04-12T14:44:25;4.93;;;2.90;;
18748;SDS011;9503;53.560;10.246;2023-04-12T14:46:51;3.40;;;2.33;;
18748;SDS011;9503;53.560;10.246;2023-04-12T14:49:18;6.10;;;2.40;;
18748;SDS011;9503;53.560;10.246;2023-04-12T14:51:45;4.93;;;2.20;;
18748;SDS011;9503;53.560;10.246;2023-04-12T14:54:11;2.47;;;2.07;;
18748;SDS011;9503;53.560;10.246;2023-04-12T14:56:38;3.20;;;2.90;;
18748;SDS011;9503;53.560;10.246;2023-04-12T14:59:06;5.60;;;3.33;;
18748;SDS011;9503;53.560;10.246;2023-04-12T15:01:32;4.13;;;2.87;;